sensor_id;sensor_type;location;lat;lon;timestamp;temperature;humidity
40622;DHT22;26324;52.040;11.528;2022-07-22T00:01:36;19.70;80.20
40622;DHT22;26324;52.040;11.528;2022-07-22T00:04:01;19.80;80.00
40622;DHT22;26324;52.040;11.528;2022-07-22T00:06:28;19.70;79.90
40622;DHT22;26324;52.040;11.528;2022-07-22T00:08:54;19.80;80.00
40622;DHT22;26324;52.040;11.528;2022-07-22T00:11:26;19.80;80.10
40622;DHT22;26324;52.040;11.528;2022-07-22T00:13:53;19.80;80.10
40622;DHT22;26324;52.040;11.528;2022-07-22T00:16:19;19.70;80.20
40622;DHT22;26324;52.040;11.528;2022-07-22T00:18:44;19.60;80.50
40622;DHT22;26324;52.040;11.528;2022-07-22T00:21:10;19.60;80.40
40622;DHT22;26324;52.040;11.528;2022-07-22T00:23:41;19.60;80.80
40622;DHT22;26324;52.040;11.528;2022-07-22T00:26:07;19.60;80.60
40622;DHT22;26324;52.040;11.528;2022-07-22T00:28:33;19.60;80.70
40622;DHT22;26324;52.040;11.528;2022-07-22T00:30:58;19.60;80.70
40622;DHT22;26324;52.040;11.528;2022-07-22T00:33:24;19.70;80.30
40622;DHT22;26324;52.040;11.528;2022-07-22T00:35:50;19.60;80.20
40622;DHT22;26324;52.040;11.528;2022-07-22T00:38:16;19.60;80.50
40622;DHT22;26324;52.040;11.528;2022-07-22T00:40:41;19.60;80.80
40622;DHT22;26324;52.040;11.528;2022-07-22T00:43:07;19.60;80.60
40622;DHT22;26324;52.040;11.528;2022-07-22T00:45:33;19.70;80.40
40622;DHT22;26324;52.040;11.528;2022-07-22T00:47:58;19.70;80.10
40622;DHT22;26324;52.040;11.528;2022-07-22T00:50:24;19.60;80.60
40622;DHT22;26324;52.040;11.528;2022-07-22T00:52:50;19.60;80.50
40622;DHT22;26324;52.040;11.528;2022-07-22T00:55:16;19.50;81.00
40622;DHT22;26324;52.040;11.528;2022-07-22T00:57:42;19.50;81.40
40622;DHT22;26324;52.040;11.528;2022-07-22T01:00:12;19.60;80.40
40622;DHT22;26324;52.040;11.528;2022-07-22T01:02:42;19.60;80.40
40622;DHT22;26324;52.040;11.528;2022-07-22T01:05:08;19.60;80.80
40622;DHT22;26324;52.040;11.528;2022-07-22T01:07:34;19.50;80.90
40622;DHT22;26324;52.040;11.528;2022-07-22T01:09:59;19.60;80.90
40622;DHT22;26324;52.040;11.528;2022-07-22T01:12:25;19.70;80.30
40622;DHT22;26324;52.040;11.528;2022-07-22T01:14:51;19.70;80.30
40622;DHT22;26324;52.040;11.528;2022-07-22T01:17:17;19.70;80.30
40622;DHT22;26324;52.040;11.528;2022-07-22T01:19:43;19.70;80.30
40622;DHT22;26324;52.040;11.528;2022-07-22T01:22:09;19.70;80.10
40622;DHT22;26324;52.040;11.528;2022-07-22T01:24:35;19.60;80.80
40622;DHT22;26324;52.040;11.528;2022-07-22T01:27:02;19.60;80.40
40622;DHT22;26324;52.040;11.528;2022-07-22T01:29:32;19.70;80.60
40622;DHT22;26324;52.040;11.528;2022-07-22T01:31:57;19.80;79.80
40622;DHT22;26324;52.040;11.528;2022-07-22T01:34:23;19.90;79.60
40622;DHT22;26324;52.040;11.528;2022-07-22T01:36:55;20.00;79.50
40622;DHT22;26324;52.040;11.528;2022-07-22T01:39:29;19.90;80.30
40622;DHT22;26324;52.040;11.528;2022-07-22T01:41:55;19.90;80.10
40622;DHT22;26324;52.040;11.528;2022-07-22T01:44:21;19.80;79.90
40622;DHT22;26324;52.040;11.528;2022-07-22T01:46:46;19.80;79.80
40622;DHT22;26324;52.040;11.528;2022-07-22T01:49:12;19.70;79.80
40622;DHT22;26324;52.040;11.528;2022-07-22T01:51:38;19.60;80.00
40622;DHT22;26324;52.040;11.528;2022-07-22T01:54:03;19.60;80.20
40622;DHT22;26324;52.040;11.528;2022-07-22T01:56:29;19.60;79.80
40622;DHT22;26324;52.040;11.528;2022-07-22T01:58:54;19.60;79.80
40622;DHT22;26324;52.040;11.528;2022-07-22T02:01:21;19.60;80.10
40622;DHT22;26324;52.040;11.528;2022-07-22T02:03:46;19.60;79.90
40622;DHT22;26324;52.040;11.528;2022-07-22T02:06:15;19.60;79.80
40622;DHT22;26324;52.040;11.528;2022-07-22T02:08:41;19.60;79.90
40622;DHT22;26324;52.040;11.528;2022-07-22T02:11:09;19.60;80.00
40622;DHT22;26324;52.040;11.528;2022-07-22T02:13:36;19.60;80.00
40622;DHT22;26324;52.040;11.528;2022-07-22T02:16:04;19.60;80.00
40622;DHT22;26324;52.040;11.528;2022-07-22T02:18:29;19.60;80.20
40622;DHT22;26324;52.040;11.528;2022-07-22T02:20:55;19.60;80.30
40622;DHT22;26324;52.040;11.528;2022-07-22T02:23:21;19.60;80.10
40622;DHT22;26324;52.040;11.528;2022-07-22T02:25:47;19.60;80.20
40622;DHT22;26324;52.040;11.528;2022-07-22T02:28:12;19.60;80.30
40622;DHT22;26324;52.040;11.528;2022-07-22T02:30:38;19.60;80.40
40622;DHT22;26324;52.040;11.528;2022-07-22T02:33:04;19.60;80.00
40622;DHT22;26324;52.040;11.528;2022-07-22T02:35:30;19.60;80.00
40622;DHT22;26324;52.040;11.528;2022-07-22T02:37:58;19.60;79.90
40622;DHT22;26324;52.040;11.528;2022-07-22T02:40:24;19.50;79.90
40622;DHT22;26324;52.040;11.528;2022-07-22T02:42:49;19.50;80.10
40622;DHT22;26324;52.040;11.528;2022-07-22T02:45:15;19.40;80.30
40622;DHT22;26324;52.040;11.528;2022-07-22T02:47:46;19.40;80.50
40622;DHT22;26324;52.040;11.528;2022-07-22T02:50:11;19.40;80.40
40622;DHT22;26324;52.040;11.528;2022-07-22T02:52:37;19.30;80.40
40622;DHT22;26324;52.040;11.528;2022-07-22T02:55:02;19.40;80.40
40622;DHT22;26324;52.040;11.528;2022-07-22T02:57:31;19.30;80.50
40622;DHT22;26324;52.040;11.528;2022-07-22T02:59:57;19.30;80.50
40622;DHT22;26324;52.040;11.528;2022-07-22T03:02:22;19.20;80.80
40622;DHT22;26324;52.040;11.528;2022-07-22T03:04:48;19.20;80.70
40622;DHT22;26324;52.040;11.528;2022-07-22T03:07:13;19.20;80.70
40622;DHT22;26324;52.040;11.528;2022-07-22T03:09:39;19.20;80.80
40622;DHT22;26324;52.040;11.528;2022-07-22T03:12:08;19.10;81.00
40622;DHT22;26324;52.040;11.528;2022-07-22T03:14:33;19.10;81.20
40622;DHT22;26324;52.040;11.528;2022-07-22T03:16:59;19.20;81.00
40622;DHT22;26324;52.040;11.528;2022-07-22T03:19:25;19.10;81.00
40622;DHT22;26324;52.040;11.528;2022-07-22T03:21:50;19.10;80.90
40622;DHT22;26324;52.040;11.528;2022-07-22T03:24:19;19.00;81.30
40622;DHT22;26324;52.040;11.528;2022-07-22T03:26:44;19.00;81.20
40622;DHT22;26324;52.040;11.528;2022-07-22T03:29:10;18.90;81.40
40622;DHT22;26324;52.040;11.528;2022-07-22T03:31:36;19.00;81.40
40622;DHT22;26324;52.040;11.528;2022-07-22T03:34:03;18.90;81.80
40622;DHT22;26324;52.040;11.528;2022-07-22T03:36:29;18.80;81.70
40622;DHT22;26324;52.040;11.528;2022-07-22T03:38:55;18.80;81.60
40622;DHT22;26324;52.040;11.528;2022-07-22T03:41:21;18.80;81.80
40622;DHT22;26324;52.040;11.528;2022-07-22T03:43:47;18.80;81.70
40622;DHT22;26324;52.040;11.528;2022-07-22T03:46:18;18.80;81.80
40622;DHT22;26324;52.040;11.528;2022-07-22T03:48:43;18.50;82.50
40622;DHT22;26324;52.040;11.528;2022-07-22T03:51:09;18.50;82.80
40622;DHT22;26324;52.040;11.528;2022-07-22T03:53:34;18.50;82.90
40622;DHT22;26324;52.040;11.528;2022-07-22T03:56:00;18.60;82.70
40622;DHT22;26324;52.040;11.528;2022-07-22T03:58:26;18.60;82.50
40622;DHT22;26324;52.040;11.528;2022-07-22T04:00:54;18.70;82.30
40622;DHT22;26324;52.040;11.528;2022-07-22T04:03:21;18.80;82.00
40622;DHT22;26324;52.040;11.528;2022-07-22T04:05:46;18.60;82.30
40622;DHT22;26324;52.040;11.528;2022-07-22T04:08:12;18.60;82.60
40622;DHT22;26324;52.040;11.528;2022-07-22T04:10:38;18.60;82.40
40622;DHT22;26324;52.040;11.528;2022-07-22T04:13:04;18.60;82.60
40622;DHT22;26324;52.040;11.528;2022-07-22T04:15:32;18.50;82.80
40622;DHT22;26324;52.040;11.528;2022-07-22T04:17:58;18.70;82.50
40622;DHT22;26324;52.040;11.528;2022-07-22T04:20:23;18.60;82.50
40622;DHT22;26324;52.040;11.528;2022-07-22T04:22:49;18.80;82.40
40622;DHT22;26324;52.040;11.528;2022-07-22T04:25:14;18.80;82.40
40622;DHT22;26324;52.040;11.528;2022-07-22T04:27:40;18.80;82.50
40622;DHT22;26324;52.040;11.528;2022-07-22T04:30:06;18.90;82.50
40622;DHT22;26324;52.040;11.528;2022-07-22T04:32:32;18.90;82.50
40622;DHT22;26324;52.040;11.528;2022-07-22T04:34:58;18.90;82.20
40622;DHT22;26324;52.040;11.528;2022-07-22T04:37:23;18.90;82.40
40622;DHT22;26324;52.040;11.528;2022-07-22T04:39:49;19.00;82.30
40622;DHT22;26324;52.040;11.528;2022-07-22T04:42:14;18.90;82.30
40622;DHT22;26324;52.040;11.528;2022-07-22T04:44:40;18.90;82.40
40622;DHT22;26324;52.040;11.528;2022-07-22T04:47:05;19.10;82.10
40622;DHT22;26324;52.040;11.528;2022-07-22T04:49:31;19.10;82.10
40622;DHT22;26324;52.040;11.528;2022-07-22T04:51:56;19.10;82.40
40622;DHT22;26324;52.040;11.528;2022-07-22T04:54:22;19.10;82.50
40622;DHT22;26324;52.040;11.528;2022-07-22T04:56:47;19.20;82.40
40622;DHT22;26324;52.040;11.528;2022-07-22T04:59:13;19.30;82.20
40622;DHT22;26324;52.040;11.528;2022-07-22T05:01:38;19.40;81.70
40622;DHT22;26324;52.040;11.528;2022-07-22T05:04:04;19.40;81.60
40622;DHT22;26324;52.040;11.528;2022-07-22T05:06:30;19.30;82.10
40622;DHT22;26324;52.040;11.528;2022-07-22T05:08:55;19.40;81.80
40622;DHT22;26324;52.040;11.528;2022-07-22T05:11:21;19.50;81.50
40622;DHT22;26324;52.040;11.528;2022-07-22T05:13:46;19.50;81.40
40622;DHT22;26324;52.040;11.528;2022-07-22T05:16:12;19.60;81.20
40622;DHT22;26324;52.040;11.528;2022-07-22T05:18:38;19.90;80.60
40622;DHT22;26324;52.040;11.528;2022-07-22T05:21:04;20.10;80.10
40622;DHT22;26324;52.040;11.528;2022-07-22T05:23:30;20.30;78.80
40622;DHT22;26324;52.040;11.528;2022-07-22T05:25:55;20.50;78.30
40622;DHT22;26324;52.040;11.528;2022-07-22T05:28:33;20.70;76.10
40622;DHT22;26324;52.040;11.528;2022-07-22T05:30:59;20.80;76.10
40622;DHT22;26324;52.040;11.528;2022-07-22T05:33:24;20.80;75.90
40622;DHT22;26324;52.040;11.528;2022-07-22T05:35:55;20.80;75.90
40622;DHT22;26324;52.040;11.528;2022-07-22T05:38:20;20.90;76.20
40622;DHT22;26324;52.040;11.528;2022-07-22T05:40:46;20.80;76.40
40622;DHT22;26324;52.040;11.528;2022-07-22T05:43:11;20.70;76.70
40622;DHT22;26324;52.040;11.528;2022-07-22T05:45:37;20.60;76.80
40622;DHT22;26324;52.040;11.528;2022-07-22T05:48:03;20.40;77.60
40622;DHT22;26324;52.040;11.528;2022-07-22T05:50:28;20.20;79.80
40622;DHT22;26324;52.040;11.528;2022-07-22T05:52:54;20.00;80.70
40622;DHT22;26324;52.040;11.528;2022-07-22T05:55:19;19.90;82.20
40622;DHT22;26324;52.040;11.528;2022-07-22T05:57:50;19.80;82.80
40622;DHT22;26324;52.040;11.528;2022-07-22T06:00:16;19.60;83.80
40622;DHT22;26324;52.040;11.528;2022-07-22T06:02:41;19.40;84.70
40622;DHT22;26324;52.040;11.528;2022-07-22T06:05:07;19.30;85.30
40622;DHT22;26324;52.040;11.528;2022-07-22T06:07:33;19.30;85.50
40622;DHT22;26324;52.040;11.528;2022-07-22T06:09:58;19.30;85.40
40622;DHT22;26324;52.040;11.528;2022-07-22T06:12:24;19.30;85.80
40622;DHT22;26324;52.040;11.528;2022-07-22T06:14:49;19.50;85.00
40622;DHT22;26324;52.040;11.528;2022-07-22T06:17:28;19.50;84.90
40622;DHT22;26324;52.040;11.528;2022-07-22T06:19:53;19.40;84.80
40622;DHT22;26324;52.040;11.528;2022-07-22T06:22:19;19.50;85.00
40622;DHT22;26324;52.040;11.528;2022-07-22T06:24:45;19.50;84.70
40622;DHT22;26324;52.040;11.528;2022-07-22T06:27:18;19.30;85.30
40622;DHT22;26324;52.040;11.528;2022-07-22T06:29:44;19.30;85.40
40622;DHT22;26324;52.040;11.528;2022-07-22T06:32:09;19.40;85.30
40622;DHT22;26324;52.040;11.528;2022-07-22T06:34:35;19.40;84.90
40622;DHT22;26324;52.040;11.528;2022-07-22T06:37:02;19.50;84.70
40622;DHT22;26324;52.040;11.528;2022-07-22T06:39:39;19.60;84.80
40622;DHT22;26324;52.040;11.528;2022-07-22T06:42:05;19.70;84.10
40622;DHT22;26324;52.040;11.528;2022-07-22T06:44:31;19.80;83.60
40622;DHT22;26324;52.040;11.528;2022-07-22T06:46:59;19.90;83.30
40622;DHT22;26324;52.040;11.528;2022-07-22T06:49:25;20.00;83.00
40622;DHT22;26324;52.040;11.528;2022-07-22T06:51:51;20.10;82.10
40622;DHT22;26324;52.040;11.528;2022-07-22T06:54:16;20.00;82.30
40622;DHT22;26324;52.040;11.528;2022-07-22T06:56:42;20.00;82.30
40622;DHT22;26324;52.040;11.528;2022-07-22T06:59:16;20.10;82.00
40622;DHT22;26324;52.040;11.528;2022-07-22T07:01:41;20.20;81.70
40622;DHT22;26324;52.040;11.528;2022-07-22T07:04:07;20.20;81.50
40622;DHT22;26324;52.040;11.528;2022-07-22T07:06:32;20.20;80.70
40622;DHT22;26324;52.040;11.528;2022-07-22T07:09:02;20.20;80.90
40622;DHT22;26324;52.040;11.528;2022-07-22T07:11:28;20.10;81.40
40622;DHT22;26324;52.040;11.528;2022-07-22T07:13:53;20.00;81.30
40622;DHT22;26324;52.040;11.528;2022-07-22T07:16:19;19.80;81.90
40622;DHT22;26324;52.040;11.528;2022-07-22T07:18:45;19.70;81.60
40622;DHT22;26324;52.040;11.528;2022-07-22T07:21:10;19.70;80.20
40622;DHT22;26324;52.040;11.528;2022-07-22T07:23:38;19.80;79.60
40622;DHT22;26324;52.040;11.528;2022-07-22T07:26:03;19.90;78.40
40622;DHT22;26324;52.040;11.528;2022-07-22T07:28:29;20.10;76.20
40622;DHT22;26324;52.040;11.528;2022-07-22T07:30:54;20.30;74.60
40622;DHT22;26324;52.040;11.528;2022-07-22T07:33:24;20.50;73.20
40622;DHT22;26324;52.040;11.528;2022-07-22T07:35:50;20.50;71.70
40622;DHT22;26324;52.040;11.528;2022-07-22T07:38:16;20.60;70.20
40622;DHT22;26324;52.040;11.528;2022-07-22T07:40:42;20.50;70.30
40622;DHT22;26324;52.040;11.528;2022-07-22T07:43:12;20.50;70.20
40622;DHT22;26324;52.040;11.528;2022-07-22T07:45:37;20.50;69.70
40622;DHT22;26324;52.040;11.528;2022-07-22T07:48:03;20.60;69.80
40622;DHT22;26324;52.040;11.528;2022-07-22T07:50:30;20.60;70.00
40622;DHT22;26324;52.040;11.528;2022-07-22T07:52:56;20.70;69.30
40622;DHT22;26324;52.040;11.528;2022-07-22T07:55:21;20.90;68.80
40622;DHT22;26324;52.040;11.528;2022-07-22T07:57:48;20.80;69.40
40622;DHT22;26324;52.040;11.528;2022-07-22T08:00:19;20.80;69.20
40622;DHT22;26324;52.040;11.528;2022-07-22T08:02:46;21.00;69.00
40622;DHT22;26324;52.040;11.528;2022-07-22T08:05:12;21.10;68.80
40622;DHT22;26324;52.040;11.528;2022-07-22T08:07:38;21.20;68.20
40622;DHT22;26324;52.040;11.528;2022-07-22T08:10:05;21.40;68.40
40622;DHT22;26324;52.040;11.528;2022-07-22T08:12:32;21.60;68.60
40622;DHT22;26324;52.040;11.528;2022-07-22T08:14:57;21.80;67.80
40622;DHT22;26324;52.040;11.528;2022-07-22T08:17:24;22.00;67.30
40622;DHT22;26324;52.040;11.528;2022-07-22T08:20:00;22.00;66.80
40622;DHT22;26324;52.040;11.528;2022-07-22T08:22:32;21.70;67.60
40622;DHT22;26324;52.040;11.528;2022-07-22T08:24:58;21.30;69.30
40622;DHT22;26324;52.040;11.528;2022-07-22T08:27:24;21.10;70.80
40622;DHT22;26324;52.040;11.528;2022-07-22T08:29:50;21.10;70.50
40622;DHT22;26324;52.040;11.528;2022-07-22T08:32:15;21.10;70.30
40622;DHT22;26324;52.040;11.528;2022-07-22T08:34:41;21.10;70.70
40622;DHT22;26324;52.040;11.528;2022-07-22T08:37:06;21.20;70.70
40622;DHT22;26324;52.040;11.528;2022-07-22T08:39:32;21.50;69.50
40622;DHT22;26324;52.040;11.528;2022-07-22T08:42:02;21.50;69.40
40622;DHT22;26324;52.040;11.528;2022-07-22T08:44:30;21.60;69.20
40622;DHT22;26324;52.040;11.528;2022-07-22T08:46:58;21.50;69.30
40622;DHT22;26324;52.040;11.528;2022-07-22T08:49:24;21.60;69.00
40622;DHT22;26324;52.040;11.528;2022-07-22T08:51:50;21.70;68.60
40622;DHT22;26324;52.040;11.528;2022-07-22T08:54:15;22.00;67.80
40622;DHT22;26324;52.040;11.528;2022-07-22T08:56:41;22.00;67.00
40622;DHT22;26324;52.040;11.528;2022-07-22T08:59:08;21.90;67.40
40622;DHT22;26324;52.040;11.528;2022-07-22T09:01:33;22.10;66.90
40622;DHT22;26324;52.040;11.528;2022-07-22T09:03:59;22.40;65.90
40622;DHT22;26324;52.040;11.528;2022-07-22T09:06:26;22.50;64.60
40622;DHT22;26324;52.040;11.528;2022-07-22T09:09:00;22.50;64.30
40622;DHT22;26324;52.040;11.528;2022-07-22T09:11:29;22.40;64.80
40622;DHT22;26324;52.040;11.528;2022-07-22T09:13:57;22.50;63.40
40622;DHT22;26324;52.040;11.528;2022-07-22T09:16:44;22.50;63.30
40622;DHT22;26324;52.040;11.528;2022-07-22T09:19:10;22.60;64.50
40622;DHT22;26324;52.040;11.528;2022-07-22T09:21:45;23.00;62.70
40622;DHT22;26324;52.040;11.528;2022-07-22T09:24:33;23.10;61.90
40622;DHT22;26324;52.040;11.528;2022-07-22T09:27:03;23.30;61.40
40622;DHT22;26324;52.040;11.528;2022-07-22T09:29:28;23.50;60.90
40622;DHT22;26324;52.040;11.528;2022-07-22T09:32:03;23.70;59.20
40622;DHT22;26324;52.040;11.528;2022-07-22T09:34:31;23.70;58.50
40622;DHT22;26324;52.040;11.528;2022-07-22T09:37:00;23.70;59.00
40622;DHT22;26324;52.040;11.528;2022-07-22T09:39:30;23.60;59.30
40622;DHT22;26324;52.040;11.528;2022-07-22T09:42:01;23.50;59.40
40622;DHT22;26324;52.040;11.528;2022-07-22T09:44:27;23.70;59.30
40622;DHT22;26324;52.040;11.528;2022-07-22T09:46:53;23.70;58.70
40622;DHT22;26324;52.040;11.528;2022-07-22T09:49:32;23.80;58.80
40622;DHT22;26324;52.040;11.528;2022-07-22T09:52:00;24.00;56.80
40622;DHT22;26324;52.040;11.528;2022-07-22T09:54:30;23.90;57.20
40622;DHT22;26324;52.040;11.528;2022-07-22T09:56:57;23.80;58.00
40622;DHT22;26324;52.040;11.528;2022-07-22T09:59:23;23.90;57.30
40622;DHT22;26324;52.040;11.528;2022-07-22T10:01:54;23.80;58.80
40622;DHT22;26324;52.040;11.528;2022-07-22T10:04:20;24.10;57.40
40622;DHT22;26324;52.040;11.528;2022-07-22T10:06:50;24.10;57.20
40622;DHT22;26324;52.040;11.528;2022-07-22T10:09:17;24.00;56.90
40622;DHT22;26324;52.040;11.528;2022-07-22T10:11:43;23.80;56.90
40622;DHT22;26324;52.040;11.528;2022-07-22T10:14:13;23.60;57.90
40622;DHT22;26324;52.040;11.528;2022-07-22T10:16:43;23.50;58.50
40622;DHT22;26324;52.040;11.528;2022-07-22T10:19:10;23.30;59.30
40622;DHT22;26324;52.040;11.528;2022-07-22T10:21:43;23.30;58.50
40622;DHT22;26324;52.040;11.528;2022-07-22T10:24:16;23.30;59.30
40622;DHT22;26324;52.040;11.528;2022-07-22T10:26:54;23.60;58.50
40622;DHT22;26324;52.040;11.528;2022-07-22T10:29:38;24.00;56.80
40622;DHT22;26324;52.040;11.528;2022-07-22T10:37:37;24.10;56.50
40622;DHT22;26324;52.040;11.528;2022-07-22T10:40:22;24.40;55.30
40622;DHT22;26324;52.040;11.528;2022-07-22T10:45:34;24.60;54.30
40622;DHT22;26324;52.040;11.528;2022-07-22T10:48:11;24.20;54.30
40622;DHT22;26324;52.040;11.528;2022-07-22T10:50:46;23.70;55.70
40622;DHT22;26324;52.040;11.528;2022-07-22T10:53:15;23.50;56.60
40622;DHT22;26324;52.040;11.528;2022-07-22T10:56:02;23.50;57.20
40622;DHT22;26324;52.040;11.528;2022-07-22T11:01:01;24.50;55.60
40622;DHT22;26324;52.040;11.528;2022-07-22T11:03:29;24.60;54.20
40622;DHT22;26324;52.040;11.528;2022-07-22T11:05:55;24.70;55.00
40622;DHT22;26324;52.040;11.528;2022-07-22T11:08:21;25.00;53.90
40622;DHT22;26324;52.040;11.528;2022-07-22T11:10:48;25.20;53.50
40622;DHT22;26324;52.040;11.528;2022-07-22T11:13:37;25.30;52.50
40622;DHT22;26324;52.040;11.528;2022-07-22T11:18:50;25.50;52.40
40622;DHT22;26324;52.040;11.528;2022-07-22T11:21:17;25.80;50.50
40622;DHT22;26324;52.040;11.528;2022-07-22T11:23:44;25.50;51.20
40622;DHT22;26324;52.040;11.528;2022-07-22T11:26:17;25.50;51.50
40622;DHT22;26324;52.040;11.528;2022-07-22T11:28:44;25.90;50.60
40622;DHT22;26324;52.040;11.528;2022-07-22T11:31:14;26.20;49.40
40622;DHT22;26324;52.040;11.528;2022-07-22T11:33:40;26.30;48.90
40622;DHT22;26324;52.040;11.528;2022-07-22T11:36:08;26.20;49.50
40622;DHT22;26324;52.040;11.528;2022-07-22T11:41:06;26.20;49.70
40622;DHT22;26324;52.040;11.528;2022-07-22T11:43:59;26.40;49.90
40622;DHT22;26324;52.040;11.528;2022-07-22T11:46:25;26.80;48.20
40622;DHT22;26324;52.040;11.528;2022-07-22T11:48:52;26.80;48.00
40622;DHT22;26324;52.040;11.528;2022-07-22T11:51:18;26.40;48.30
40622;DHT22;26324;52.040;11.528;2022-07-22T11:53:44;26.10;49.60
40622;DHT22;26324;52.040;11.528;2022-07-22T11:56:10;25.70;49.60
40622;DHT22;26324;52.040;11.528;2022-07-22T11:58:42;25.60;50.90
40622;DHT22;26324;52.040;11.528;2022-07-22T12:01:10;25.60;50.30
40622;DHT22;26324;52.040;11.528;2022-07-22T12:03:37;25.10;51.60
40622;DHT22;26324;52.040;11.528;2022-07-22T12:06:05;24.90;52.70
40622;DHT22;26324;52.040;11.528;2022-07-22T12:08:32;25.00;52.20
40622;DHT22;26324;52.040;11.528;2022-07-22T12:11:00;25.10;51.60
40622;DHT22;26324;52.040;11.528;2022-07-22T12:13:30;25.40;52.30
40622;DHT22;26324;52.040;11.528;2022-07-22T12:15:55;26.20;49.00
40622;DHT22;26324;52.040;11.528;2022-07-22T12:18:23;26.60;47.40
40622;DHT22;26324;52.040;11.528;2022-07-22T12:20:50;26.40;48.30
40622;DHT22;26324;52.040;11.528;2022-07-22T12:23:16;26.10;48.90
40622;DHT22;26324;52.040;11.528;2022-07-22T12:25:57;26.00;49.80
40622;DHT22;26324;52.040;11.528;2022-07-22T12:28:23;26.10;50.10
40622;DHT22;26324;52.040;11.528;2022-07-22T12:30:50;26.50;49.40
40622;DHT22;26324;52.040;11.528;2022-07-22T12:33:16;26.70;48.60
40622;DHT22;26324;52.040;11.528;2022-07-22T12:35:42;26.50;48.20
40622;DHT22;26324;52.040;11.528;2022-07-22T12:38:09;26.10;49.60
40622;DHT22;26324;52.040;11.528;2022-07-22T12:40:36;26.20;49.10
40622;DHT22;26324;52.040;11.528;2022-07-22T12:43:08;26.50;48.40
40622;DHT22;26324;52.040;11.528;2022-07-22T12:45:35;26.30;48.50
40622;DHT22;26324;52.040;11.528;2022-07-22T12:50:43;26.80;47.50
40622;DHT22;26324;52.040;11.528;2022-07-22T12:53:11;27.50;45.50
40622;DHT22;26324;52.040;11.528;2022-07-22T12:55:39;27.80;45.00
40622;DHT22;26324;52.040;11.528;2022-07-22T12:58:05;27.40;45.70
40622;DHT22;26324;52.040;11.528;2022-07-22T13:00:40;27.00;46.60
40622;DHT22;26324;52.040;11.528;2022-07-22T13:03:06;27.00;47.80
40622;DHT22;26324;52.040;11.528;2022-07-22T13:05:32;27.50;46.10
40622;DHT22;26324;52.040;11.528;2022-07-22T13:07:57;27.60;45.60
40622;DHT22;26324;52.040;11.528;2022-07-22T13:10:24;27.50;46.20
40622;DHT22;26324;52.040;11.528;2022-07-22T13:12:51;27.40;46.00
40622;DHT22;26324;52.040;11.528;2022-07-22T13:15:17;26.70;47.90
40622;DHT22;26324;52.040;11.528;2022-07-22T13:17:43;27.10;48.00
40622;DHT22;26324;52.040;11.528;2022-07-22T13:20:10;27.60;46.60
40622;DHT22;26324;52.040;11.528;2022-07-22T13:22:36;28.40;44.20
40622;DHT22;26324;52.040;11.528;2022-07-22T13:25:03;28.60;43.50
40622;DHT22;26324;52.040;11.528;2022-07-22T13:27:28;28.60;43.80
40622;DHT22;26324;52.040;11.528;2022-07-22T13:29:54;28.70;43.30
40622;DHT22;26324;52.040;11.528;2022-07-22T13:32:20;28.50;43.70
40622;DHT22;26324;52.040;11.528;2022-07-22T13:34:45;28.30;43.90
40622;DHT22;26324;52.040;11.528;2022-07-22T13:37:11;28.50;43.80
40622;DHT22;26324;52.040;11.528;2022-07-22T13:39:37;28.60;42.80
40622;DHT22;26324;52.040;11.528;2022-07-22T13:42:03;28.50;43.00
40622;DHT22;26324;52.040;11.528;2022-07-22T13:44:28;28.30;44.40
40622;DHT22;26324;52.040;11.528;2022-07-22T13:46:59;28.10;43.90
40622;DHT22;26324;52.040;11.528;2022-07-22T13:49:25;27.80;44.90
40622;DHT22;26324;52.040;11.528;2022-07-22T13:51:51;28.00;45.20
40622;DHT22;26324;52.040;11.528;2022-07-22T13:54:17;28.50;43.40
40622;DHT22;26324;52.040;11.528;2022-07-22T13:56:43;28.60;43.10
40622;DHT22;26324;52.040;11.528;2022-07-22T13:59:12;28.30;43.70
40622;DHT22;26324;52.040;11.528;2022-07-22T14:01:38;28.50;43.50
40622;DHT22;26324;52.040;11.528;2022-07-22T14:04:04;29.00;43.40
40622;DHT22;26324;52.040;11.528;2022-07-22T14:06:30;29.50;42.70
40622;DHT22;26324;52.040;11.528;2022-07-22T14:08:55;30.30;41.50
40622;DHT22;26324;52.040;11.528;2022-07-22T14:11:21;31.10;38.80
40622;DHT22;26324;52.040;11.528;2022-07-22T14:13:46;31.30;37.90
40622;DHT22;26324;52.040;11.528;2022-07-22T14:16:12;30.80;37.90
40622;DHT22;26324;52.040;11.528;2022-07-22T14:18:56;30.20;39.10
40622;DHT22;26324;52.040;11.528;2022-07-22T14:21:21;30.10;39.40
40622;DHT22;26324;52.040;11.528;2022-07-22T14:23:47;29.80;40.20
40622;DHT22;26324;52.040;11.528;2022-07-22T14:26:12;29.90;39.90
40622;DHT22;26324;52.040;11.528;2022-07-22T14:28:38;29.50;40.30
40622;DHT22;26324;52.040;11.528;2022-07-22T14:31:04;29.30;41.10
40622;DHT22;26324;52.040;11.528;2022-07-22T14:33:29;29.10;41.40
40622;DHT22;26324;52.040;11.528;2022-07-22T14:35:55;29.10;41.40
40622;DHT22;26324;52.040;11.528;2022-07-22T14:38:20;29.30;41.00
40622;DHT22;26324;52.040;11.528;2022-07-22T14:40:46;29.30;42.20
40622;DHT22;26324;52.040;11.528;2022-07-22T14:43:11;29.60;40.80
40622;DHT22;26324;52.040;11.528;2022-07-22T14:45:37;30.60;39.20
40622;DHT22;26324;52.040;11.528;2022-07-22T14:48:03;31.30;37.60
40622;DHT22;26324;52.040;11.528;2022-07-22T14:50:28;32.30;35.80
40622;DHT22;26324;52.040;11.528;2022-07-22T14:52:54;33.20;34.10
40622;DHT22;26324;52.040;11.528;2022-07-22T14:55:19;33.30;33.90
40622;DHT22;26324;52.040;11.528;2022-07-22T14:57:45;32.60;34.80
40622;DHT22;26324;52.040;11.528;2022-07-22T15:00:10;31.90;35.70
40622;DHT22;26324;52.040;11.528;2022-07-22T15:02:36;31.50;36.50
40622;DHT22;26324;52.040;11.528;2022-07-22T15:05:01;32.10;36.50
40622;DHT22;26324;52.040;11.528;2022-07-22T15:07:27;33.30;33.80
40622;DHT22;26324;52.040;11.528;2022-07-22T15:09:53;33.70;33.20
40622;DHT22;26324;52.040;11.528;2022-07-22T15:12:18;34.10;32.70
40622;DHT22;26324;52.040;11.528;2022-07-22T15:14:43;34.30;32.50
40622;DHT22;26324;52.040;11.528;2022-07-22T15:17:09;34.20;32.00
40622;DHT22;26324;52.040;11.528;2022-07-22T15:19:34;34.50;31.90
40622;DHT22;26324;52.040;11.528;2022-07-22T15:22:00;35.00;31.10
40622;DHT22;26324;52.040;11.528;2022-07-22T15:24:26;34.60;31.20
40622;DHT22;26324;52.040;11.528;2022-07-22T15:26:51;33.90;33.10
40622;DHT22;26324;52.040;11.528;2022-07-22T15:29:17;34.00;32.00
40622;DHT22;26324;52.040;11.528;2022-07-22T15:31:43;34.00;32.10
40622;DHT22;26324;52.040;11.528;2022-07-22T15:34:08;34.10;32.00